sensor_id;sensor_type;location;lat;lon;timestamp;pressure;altitude;pressure_sealevel;temperature;humidity
56006;BME280;41888;44.696;10.522;2023-02-28T00:00:50;101082.09;;;3.56;100.00
56006;BME280;41888;44.696;10.522;2023-02-28T00:03:16;101079.75;;;3.53;100.00
56006;BME280;41888;44.696;10.522;2023-02-28T00:05:42;101085.59;;;3.47;100.00
56006;BME280;41888;44.696;10.522;2023-02-28T00:08:09;101086.00;;;3.52;100.00
56006;BME280;41888;44.696;10.522;2023-02-28T00:10:35;101092.50;;;3.48;100.00
56006;BME280;41888;44.696;10.522;2023-02-28T00:13:06;101093.47;;;3.47;100.00
56006;BME280;41888;44.696;10.522;2023-02-28T00:15:33;101093.22;;;3.40;100.00
56006;BME280;41888;44.696;10.522;2023-02-28T00:17:59;101094.59;;;3.35;100.00
56006;BME280;41888;44.696;10.522;2023-02-28T00:20:25;101098.22;;;3.34;100.00
56006;BME280;41888;44.696;10.522;2023-02-28T00:22:53;101099.16;;;3.43;100.00
56006;BME280;41888;44.696;10.522;2023-02-28T00:25:22;101095.84;;;3.40;100.00
56006;BME280;41888;44.696;10.522;2023-02-28T00:27:49;101099.00;;;3.44;100.00
56006;BME280;41888;44.696;10.522;2023-02-28T00:30:19;101100.25;;;3.50;100.00
56006;BME280;41888;44.696;10.522;2023-02-28T00:32:45;101095.69;;;3.52;100.00
56006;BME280;41888;44.696;10.522;2023-02-28T00:35:12;101093.34;;;3.49;100.00
56006;BME280;41888;44.696;10.522;2023-02-28T00:37:38;101100.09;;;3.51;100.00
56006;BME280;41888;44.696;10.522;2023-02-28T00:40:05;101102.78;;;3.32;100.00
56006;BME280;41888;44.696;10.522;2023-02-28T00:42:33;101102.03;;;3.49;100.00
56006;BME280;41888;44.696;10.522;2023-02-28T00:44:59;101099.59;;;3.38;100.00
56006;BME280;41888;44.696;10.522;2023-02-28T00:47:26;101113.44;;;3.30;100.00
56006;BME280;41888;44.696;10.522;2023-02-28T00:49:52;101107.63;;;3.36;100.00
56006;BME280;41888;44.696;10.522;2023-02-28T00:52:18;101094.34;;;3.38;100.00
56006;BME280;41888;44.696;10.522;2023-02-28T00:54:44;101105.41;;;3.42;100.00
56006;BME280;41888;44.696;10.522;2023-02-28T00:57:11;101103.59;;;3.42;100.00
56006;BME280;41888;44.696;10.522;2023-02-28T00:59:37;101100.00;;;3.43;100.00
56006;BME280;41888;44.696;10.522;2023-02-28T01:02:03;101110.13;;;3.38;100.00
56006;BME280;41888;44.696;10.522;2023-02-28T01:04:29;101100.28;;;3.40;100.00
56006;BME280;41888;44.696;10.522;2023-02-28T01:06:55;101101.25;;;3.49;100.00
56006;BME280;41888;44.696;10.522;2023-02-28T01:09:21;101106.63;;;3.47;100.00
56006;BME280;41888;44.696;10.522;2023-02-28T01:11:48;101098.34;;;3.42;100.00
56006;BME280;41888;44.696;10.522;2023-02-28T01:14:15;101098.34;;;3.42;100.00
56006;BME280;41888;44.696;10.522;2023-02-28T01:16:43;101101.81;;;3.43;100.00
56006;BME280;41888;44.696;10.522;2023-02-28T01:19:09;101110.66;;;3.42;100.00
56006;BME280;41888;44.696;10.522;2023-02-28T01:21:36;101111.50;;;3.42;100.00
56006;BME280;41888;44.696;10.522;2023-02-28T01:24:04;101112.03;;;3.46;100.00
56006;BME280;41888;44.696;10.522;2023-02-28T01:26:30;101106.78;;;3.46;100.00
56006;BME280;41888;44.696;10.522;2023-02-28T01:28:57;101099.72;;;3.46;100.00
56006;BME280;41888;44.696;10.522;2023-02-28T01:31:24;101096.53;;;3.43;100.00
56006;BME280;41888;44.696;10.522;2023-02-28T01:33:50;101093.22;;;3.40;100.00
56006;BME280;41888;44.696;10.522;2023-02-28T01:36:22;101097.63;;;3.40;100.00
56006;BME280;41888;44.696;10.522;2023-02-28T01:38:49;101100.00;;;3.43;100.00
56006;BME280;41888;44.696;10.522;2023-02-28T01:41:24;101100.28;;;3.40;100.00
56006;BME280;41888;44.696;10.522;2023-02-28T01:46:19;101096.81;;;3.39;100.00
56006;BME280;41888;44.696;10.522;2023-02-28T01:49:04;101092.38;;;3.40;100.00
56006;BME280;41888;44.696;10.522;2023-02-28T01:51:39;101091.28;;;3.43;100.00
56006;BME280;41888;44.696;10.522;2023-02-28T01:54:14;101094.19;;;3.39;100.00
56006;BME280;41888;44.696;10.522;2023-02-28T01:56:49;101085.47;;;3.39;100.00
56006;BME280;41888;44.696;10.522;2023-02-28T02:00:21;101092.25;;;3.42;100.00
56006;BME280;41888;44.696;10.522;2023-02-28T02:02:30;101088.25;;;3.37;100.00
56006;BME280;41888;44.696;10.522;2023-02-28T02:05:05;101084.63;;;3.38;100.00
56006;BME280;41888;44.696;10.522;2023-02-28T02:07:34;101091.00;;;3.36;100.00
56006;BME280;41888;44.696;10.522;2023-02-28T02:10:19;101096.56;;;3.33;100.00
56006;BME280;41888;44.696;10.522;2023-02-28T02:12:53;101083.25;;;3.34;100.00
56006;BME280;41888;44.696;10.522;2023-02-28T02:15:34;101080.78;;;3.33;100.00
56006;BME280;41888;44.696;10.522;2023-02-28T02:18:12;101083.13;;;3.36;100.00
56006;BME280;41888;44.696;10.522;2023-02-28T02:40:23;101095.47;;;3.26;100.00
56006;BME280;41888;44.696;10.522;2023-02-28T02:42:59;101092.31;;;3.22;100.00
56006;BME280;41888;44.696;10.522;2023-02-28T02:45:29;101097.81;;;3.29;100.00
56006;BME280;41888;44.696;10.522;2023-02-28T02:48:03;101094.34;;;3.28;100.00
56006;BME280;41888;44.696;10.522;2023-02-28T02:50:38;101100.31;;;3.21;100.00
56006;BME280;41888;44.696;10.522;2023-02-28T02:53:07;101091.59;;;3.20;100.00
56006;BME280;41888;44.696;10.522;2023-02-28T02:55:37;101102.38;;;3.17;100.00
56006;BME280;41888;44.696;10.522;2023-02-28T02:58:07;101097.28;;;3.16;100.00
56006;BME280;41888;44.696;10.522;2023-02-28T03:00:45;101093.81;;;3.15;100.00
56006;BME280;41888;44.696;10.522;2023-02-28T03:03:13;101093.00;;;3.15;100.00
56006;BME280;41888;44.696;10.522;2023-02-28T03:05:50;101093.81;;;3.15;100.00
56006;BME280;41888;44.696;10.522;2023-02-28T03:08:16;101101.84;;;3.14;100.00
56006;BME280;41888;44.696;10.522;2023-02-28T03:10:50;101102.41;;;3.08;100.00
56006;BME280;41888;44.696;10.522;2023-02-28T03:16:46;101092.59;;;3.00;100.00
56006;BME280;41888;44.696;10.522;2023-02-28T03:21:48;101090.50;;;3.04;100.00
56006;BME280;41888;44.696;10.522;2023-02-28T03:24:45;101094.09;;;3.03;100.00
56006;BME280;41888;44.696;10.522;2023-02-28T03:27:29;101092.03;;;3.06;100.00
56006;BME280;41888;44.696;10.522;2023-02-28T03:30:10;101091.06;;;3.07;100.00
56006;BME280;41888;44.696;10.522;2023-02-28T03:35:25;101101.44;;;2.99;100.00
56006;BME280;41888;44.696;10.522;2023-02-28T03:38:03;101103.66;;;2.94;100.00
56006;BME280;41888;44.696;10.522;2023-02-28T03:40:33;101101.88;;;2.85;100.00
56006;BME280;41888;44.696;10.522;2023-02-28T03:43:09;101095.91;;;2.83;100.00
56006;BME280;41888;44.696;10.522;2023-02-28T03:45:38;101099.63;;;2.80;100.00
56006;BME280;41888;44.696;10.522;2023-02-28T03:48:14;101102.13;;;2.82;100.00
56006;BME280;41888;44.696;10.522;2023-02-28T03:50:44;101098.13;;;2.78;100.00
56006;BME280;41888;44.696;10.522;2023-02-28T03:53:25;101099.94;;;2.77;100.00
56006;BME280;41888;44.696;10.522;2023-02-28T03:58:51;101099.38;;;2.83;100.00
56006;BME280;41888;44.696;10.522;2023-02-28T04:03:56;101103.81;;;2.83;100.00
56006;BME280;41888;44.696;10.522;2023-02-28T04:06:23;101103.66;;;2.84;100.00
56006;BME280;41888;44.696;10.522;2023-02-28T04:08:50;101100.34;;;2.82;100.00
56006;BME280;41888;44.696;10.522;2023-02-28T04:13:49;101101.03;;;2.84;100.00
56006;BME280;41888;44.696;10.522;2023-02-28T04:16:16;101101.16;;;2.83;100.00
56006;BME280;41888;44.696;10.522;2023-02-28T04:18:43;101104.50;;;2.85;100.00
56006;BME280;41888;44.696;10.522;2023-02-28T04:21:09;101109.59;;;2.86;100.00
56006;BME280;41888;44.696;10.522;2023-02-28T04:23:36;101115.56;;;2.88;100.00
56006;BME280;41888;44.696;10.522;2023-02-28T04:26:02;101117.91;;;2.91;100.00
56006;BME280;41888;44.696;10.522;2023-02-28T04:28:28;101111.81;;;2.91;100.00
56006;BME280;41888;44.696;10.522;2023-02-28T04:31:01;101121.22;;;2.93;100.00
56006;BME280;41888;44.696;10.522;2023-02-28T04:33:28;101114.31;;;2.92;100.00
56006;BME280;41888;44.696;10.522;2023-02-28T04:38:26;101114.59;;;2.89;100.00
56006;BME280;41888;44.696;10.522;2023-02-28T04:40:52;101116.38;;;2.89;100.00
56006;BME280;41888;44.696;10.522;2023-02-28T04:43:19;101114.59;;;2.89;100.00
56006;BME280;41888;44.696;10.522;2023-02-28T04:45:45;101119.31;;;2.95;100.00
56006;BME280;41888;44.696;10.522;2023-02-28T04:48:11;101129.00;;;2.95;100.00
56006;BME280;41888;44.696;10.522;2023-02-28T04:50:37;101130.50;;;2.97;100.00
56006;BME280;41888;44.696;10.522;2023-02-28T04:53:03;101122.91;;;2.94;100.00
56006;BME280;41888;44.696;10.522;2023-02-28T04:55:29;101129.00;;;2.95;100.00
56006;BME280;41888;44.696;10.522;2023-02-28T04:57:55;101125.22;;;2.97;100.00
56006;BME280;41888;44.696;10.522;2023-02-28T05:00:21;101130.50;;;2.97;100.00
56006;BME280;41888;44.696;10.522;2023-02-28T05:02:48;101135.06;;;2.95;100.00
56006;BME280;41888;44.696;10.522;2023-02-28T05:05:14;101135.06;;;2.95;100.00
56006;BME280;41888;44.696;10.522;2023-02-28T05:07:44;101128.81;;;2.96;100.00
56006;BME280;41888;44.696;10.522;2023-02-28T05:10:11;101130.66;;;2.96;100.00
56006;BME280;41888;44.696;10.522;2023-02-28T05:12:37;101127.88;;;2.97;100.00
56006;BME280;41888;44.696;10.522;2023-02-28T05:15:05;101125.09;;;2.99;100.00
56006;BME280;41888;44.696;10.522;2023-02-28T05:17:31;101130.91;;;3.03;100.00
56006;BME280;41888;44.696;10.522;2023-02-28T05:19:57;101131.88;;;3.02;100.00
56006;BME280;41888;44.696;10.522;2023-02-28T05:22:24;101138.13;;;3.01;100.00
56006;BME280;41888;44.696;10.522;2023-02-28T05:24:50;101132.16;;;2.98;100.00
56006;BME280;41888;44.696;10.522;2023-02-28T05:27:16;101135.75;;;2.97;100.00
56006;BME280;41888;44.696;10.522;2023-02-28T05:29:42;101137.72;;;2.95;100.00
56006;BME280;41888;44.696;10.522;2023-02-28T05:32:11;101131.63;;;2.95;100.00
56006;BME280;41888;44.696;10.522;2023-02-28T05:34:39;101128.41;;;2.91;100.00
56006;BME280;41888;44.696;10.522;2023-02-28T05:37:07;101132.84;;;2.91;100.00
56006;BME280;41888;44.696;10.522;2023-02-28T05:39:36;101137.13;;;2.92;100.00
56006;BME280;41888;44.696;10.522;2023-02-28T05:42:03;101125.13;;;2.89;100.00
56006;BME280;41888;44.696;10.522;2023-02-28T05:44:29;101128.56;;;2.90;100.00
56006;BME280;41888;44.696;10.522;2023-02-28T05:46:55;101131.19;;;2.90;100.00
56006;BME280;41888;44.696;10.522;2023-02-28T05:49:21;101127.03;;;2.87;100.00
56006;BME280;41888;44.696;10.522;2023-02-28T05:51:47;101133.97;;;2.88;100.00
56006;BME280;41888;44.696;10.522;2023-02-28T05:54:14;101134.78;;;2.89;100.00
56006;BME280;41888;44.696;10.522;2023-02-28T05:56:40;101130.38;;;2.89;100.00
56006;BME280;41888;44.696;10.522;2023-02-28T05:59:09;101135.88;;;2.86;100.00
56006;BME280;41888;44.696;10.522;2023-02-28T06:01:44;101136.59;;;2.88;100.00
56006;BME280;41888;44.696;10.522;2023-02-28T06:04:18;101135.34;;;2.92;100.00
56006;BME280;41888;44.696;10.522;2023-02-28T06:06:49;101141.56;;;2.91;100.00
56006;BME280;41888;44.696;10.522;2023-02-28T06:09:16;101145.84;;;2.92;100.00
56006;BME280;41888;44.696;10.522;2023-02-28T06:11:43;101140.59;;;2.92;100.00
56006;BME280;41888;44.696;10.522;2023-02-28T06:14:15;101150.28;;;3.02;100.00
56006;BME280;41888;44.696;10.522;2023-02-28T06:16:43;101152.47;;;2.96;100.00
56006;BME280;41888;44.696;10.522;2023-02-28T06:19:09;101153.88;;;3.01;100.00
56006;BME280;41888;44.696;10.522;2023-02-28T06:21:36;101168.97;;;2.98;100.00
56006;BME280;41888;44.696;10.522;2023-02-28T06:24:03;101172.41;;;2.99;100.00
56006;BME280;41888;44.696;10.522;2023-02-28T06:26:29;101182.50;;;3.04;100.00
56006;BME280;41888;44.696;10.522;2023-02-28T06:28:56;101181.53;;;3.24;100.00
56006;BME280;41888;44.696;10.522;2023-02-28T06:31:23;101184.19;;;3.24;100.00
56006;BME280;41888;44.696;10.522;2023-02-28T06:33:50;101192.34;;;3.11;100.00
56006;BME280;41888;44.696;10.522;2023-02-28T06:36:16;101188.44;;;2.86;100.00
56006;BME280;41888;44.696;10.522;2023-02-28T06:38:43;101189.50;;;2.65;100.00
56006;BME280;41888;44.696;10.522;2023-02-28T06:41:10;101191.03;;;2.67;100.00
56006;BME280;41888;44.696;10.522;2023-02-28T06:43:39;101192.06;;;2.85;100.00
56006;BME280;41888;44.696;10.522;2023-02-28T06:46:08;101198.81;;;2.78;100.00
56006;BME280;41888;44.696;10.522;2023-02-28T06:48:35;101196.19;;;2.78;100.00
56006;BME280;41888;44.696;10.522;2023-02-28T06:51:12;101191.78;;;2.79;100.00
56006;BME280;41888;44.696;10.522;2023-02-28T06:53:40;101197.88;;;2.98;100.00
56006;BME280;41888;44.696;10.522;2023-02-28T06:56:08;101190.69;;;3.01;100.00
56006;BME280;41888;44.696;10.522;2023-02-28T06:58:35;101194.69;;;2.95;100.00
56006;BME280;41888;44.696;10.522;2023-02-28T07:01:02;101200.09;;;2.93;100.00
56006;BME280;41888;44.696;10.522;2023-02-28T07:03:28;101202.72;;;3.13;100.00
56006;BME280;41888;44.696;10.522;2023-02-28T07:05:54;101202.84;;;2.92;100.00
56006;BME280;41888;44.696;10.522;2023-02-28T07:08:23;101205.03;;;2.77;100.00
56006;BME280;41888;44.696;10.522;2023-02-28T07:10:55;101205.56;;;2.71;100.00
56006;BME280;41888;44.696;10.522;2023-02-28T07:13:22;101209.22;;;2.89;100.00
56006;BME280;41888;44.696;10.522;2023-02-28T07:15:56;101208.09;;;2.82;100.00
56006;BME280;41888;44.696;10.522;2023-02-28T07:18:23;101207.84;;;2.85;100.00
56006;BME280;41888;44.696;10.522;2023-02-28T07:20:50;101203.94;;;2.80;100.00
56006;BME280;41888;44.696;10.522;2023-02-28T07:23:16;101210.00;;;2.71;100.00
56006;BME280;41888;44.696;10.522;2023-02-28T07:25:43;101209.75;;;2.83;100.00
56006;BME280;41888;44.696;10.522;2023-02-28T07:28:09;101210.72;;;2.82;100.00
56006;BME280;41888;44.696;10.522;2023-02-28T07:30:36;101206.28;;;2.83;100.00
56006;BME280;41888;44.696;10.522;2023-02-28T07:33:02;101218.59;;;2.82;100.00
56006;BME280;41888;44.696;10.522;2023-02-28T07:35:28;101206.94;;;2.75;100.00
56006;BME280;41888;44.696;10.522;2023-02-28T07:37:54;101211.53;;;2.73;100.00
56006;BME280;41888;44.696;10.522;2023-02-28T07:40:20;101212.50;;;2.72;100.00
56006;BME280;41888;44.696;10.522;2023-02-28T07:42:47;101218.84;;;2.70;100.00
56006;BME280;41888;44.696;10.522;2023-02-28T07:45:13;101217.63;;;2.83;100.00
56006;BME280;41888;44.696;10.522;2023-02-28T07:47:41;101215.78;;;2.65;100.00
56006;BME280;41888;44.696;10.522;2023-02-28T07:50:10;101216.19;;;2.60;100.00
56006;BME280;41888;44.696;10.522;2023-02-28T07:52:37;101222.88;;;2.74;100.00
56006;BME280;41888;44.696;10.522;2023-02-28T07:55:05;101221.88;;;2.65;100.00
56006;BME280;41888;44.696;10.522;2023-02-28T07:57:31;101220.06;;;2.56;100.00
56006;BME280;41888;44.696;10.522;2023-02-28T07:59:57;101231.00;;;2.61;100.00
56006;BME280;41888;44.696;10.522;2023-02-28T08:02:24;101238.19;;;2.59;100.00
56006;BME280;41888;44.696;10.522;2023-02-28T08:04:50;101234.03;;;2.66;100.00
56006;BME280;41888;44.696;10.522;2023-02-28T08:07:17;101230.06;;;2.81;100.00
56006;BME280;41888;44.696;10.522;2023-02-28T08:09:44;101226.47;;;2.82;100.00
56006;BME280;41888;44.696;10.522;2023-02-28T08:12:11;101229.66;;;2.76;100.00
56006;BME280;41888;44.696;10.522;2023-02-28T08:14:37;101236.28;;;2.80;100.00
56006;BME280;41888;44.696;10.522;2023-02-28T08:17:04;101241.28;;;2.83;100.00
56006;BME280;41888;44.696;10.522;2023-02-28T08:19:31;101241.53;;;2.80;100.00
56006;BME280;41888;44.696;10.522;2023-02-28T08:21:57;101248.97;;;2.66;100.00
56006;BME280;41888;44.696;10.522;2023-02-28T08:24:24;101253.66;;;2.62;100.00
56006;BME280;41888;44.696;10.522;2023-02-28T08:26:50;101255.84;;;2.47;100.00
56006;BME280;41888;44.696;10.522;2023-02-28T08:29:16;101257.97;;;2.63;100.00
56006;BME280;41888;44.696;10.522;2023-02-28T08:31:42;101257.25;;;2.61;100.00
56006;BME280;41888;44.696;10.522;2023-02-28T08:34:11;101253.38;;;2.55;100.00
56006;BME280;41888;44.696;10.522;2023-02-28T08:36:38;101246.50;;;2.64;100.00
56006;BME280;41888;44.696;10.522;2023-02-28T08:39:05;101254.50;;;2.63;100.00
56006;BME280;41888;44.696;10.522;2023-02-28T08:41:32;101248.00;;;2.57;100.00
56006;BME280;41888;44.696;10.522;2023-02-28T08:43:58;101249.56;;;2.69;100.00
56006;BME280;41888;44.696;10.522;2023-02-28T08:46:26;101250.66;;;2.76;100.00
56006;BME280;41888;44.696;10.522;2023-02-28T08:48:53;101250.00;;;2.84;100.00
56006;BME280;41888;44.696;10.522;2023-02-28T08:51:20;101244.47;;;2.87;100.00
56006;BME280;41888;44.696;10.522;2023-02-28T08:53:54;101246.97;;;2.88;100.00
56006;BME280;41888;44.696;10.522;2023-02-28T08:56:21;101254.44;;;2.83;100.00
56006;BME280;41888;44.696;10.522;2023-02-28T08:58:49;101260.94;;;2.79;100.00
56006;BME280;41888;44.696;10.522;2023-02-28T09:01:20;101253.31;;;2.86;100.00
56006;BME280;41888;44.696;10.522;2023-02-28T09:03:49;101256.00;;;2.95;100.00
56006;BME280;41888;44.696;10.522;2023-02-28T09:06:17;101252.78;;;3.02;100.00
56006;BME280;41888;44.696;10.522;2023-02-28T09:08:44;101255.16;;;2.95;100.00
56006;BME280;41888;44.696;10.522;2023-02-28T09:11:11;101256.53;;;2.99;100.00
56006;BME280;41888;44.696;10.522;2023-02-28T09:13:38;101254.75;;;3.09;100.00
56006;BME280;41888;44.696;10.522;2023-02-28T09:16:06;101262.22;;;3.23;100.00
56006;BME280;41888;44.696;10.522;2023-02-28T09:18:35;101263.78;;;3.26;100.00
56006;BME280;41888;44.696;10.522;2023-02-28T09:21:09;101265.56;;;3.35;100.00
56006;BME280;41888;44.696;10.522;2023-02-28T09:23:37;101269.56;;;3.29;100.00
56006;BME280;41888;44.696;10.522;2023-02-28T09:26:06;101262.53;;;3.39;100.00
56006;BME280;41888;44.696;10.522;2023-02-28T09:28:32;101272.38;;;3.37;100.00
56006;BME280;41888;44.696;10.522;2023-02-28T09:30:59;101270.69;;;3.46;100.00
56006;BME280;41888;44.696;10.522;2023-02-28T09:33:26;101270.84;;;3.54;100.00
56006;BME280;41888;44.696;10.522;2023-02-28T09:35:59;101262.94;;;3.73;100.00
56006;BME280;41888;44.696;10.522;2023-02-28T09:38:26;101264.59;;;3.84;100.00
56006;BME280;41888;44.696;10.522;2023-02-28T09:40:58;101262.63;;;3.86;100.00
56006;BME280;41888;44.696;10.522;2023-02-28T09:43:36;101264.56;;;3.94;100.00
56006;BME280;41888;44.696;10.522;2023-02-28T09:46:28;101277.16;;;4.00;100.00
56006;BME280;41888;44.696;10.522;2023-02-28T09:48:55;101274.78;;;4.16;100.00
56006;BME280;41888;44.696;10.522;2023-02-28T09:53:55;101271.63;;;4.49;100.00
56006;BME280;41888;44.696;10.522;2023-02-28T09:56:41;101271.91;;;4.46;100.00
56006;BME280;41888;44.696;10.522;2023-02-28T09:59:20;101274.75;;;4.62;100.00
56006;BME280;41888;44.696;10.522;2023-02-28T10:02:04;101266.34;;;4.77;100.00
56006;BME280;41888;44.696;10.522;2023-02-28T10:07:20;101273.97;;;4.80;100.00
56006;BME280;41888;44.696;10.522;2023-02-28T10:09:51;101266.47;;;4.85;100.00
56006;BME280;41888;44.696;10.522;2023-02-28T10:12:20;101266.09;;;4.97;100.00
56006;BME280;41888;44.696;10.522;2023-02-28T10:14:49;101273.13;;;5.06;100.00
56006;BME280;41888;44.696;10.522;2023-02-28T10:17:24;101267.41;;;5.11;100.00
56006;BME280;41888;44.696;10.522;2023-02-28T10:22:39;101273.75;;;5.18;100.00
56006;BME280;41888;44.696;10.522;2023-02-28T10:25:20;101267.78;;;5.16;100.00
56006;BME280;41888;44.696;10.522;2023-02-28T10:27:46;101268.34;;;5.37;100.00
56006;BME280;41888;44.696;10.522;2023-02-28T10:30:13;101273.47;;;5.39;100.00
56006;BME280;41888;44.696;10.522;2023-02-28T10:32:51;101258.97;;;5.25;100.00
56006;BME280;41888;44.696;10.522;2023-02-28T10:35:24;101271.50;;;5.23;100.00
56006;BME280;41888;44.696;10.522;2023-02-28T10:37:59;101273.38;;;5.31;100.00
56006;BME280;41888;44.696;10.522;2023-02-28T10:40:36;101273.91;;;5.34;100.00
56006;BME280;41888;44.696;10.522;2023-02-28T10:45:39;101272.19;;;5.43;100.00
56006;BME280;41888;44.696;10.522;2023-02-28T10:50:57;101266.22;;;5.23;100.00
56006;BME280;41888;44.696;10.522;2023-02-28T10:58:40;101270.81;;;5.21;100.00
56006;BME280;41888;44.696;10.522;2023-02-28T11:01:21;101268.47;;;5.36;100.00
56006;BME280;41888;44.696;10.522;2023-02-28T11:03:48;101272.31;;;5.41;100.00
56006;BME280;41888;44.696;10.522;2023-02-28T11:06:34;101271.97;;;5.54;100.00
56006;BME280;41888;44.696;10.522;2023-02-28T11:09:16;101266.31;;;5.49;100.00
56006;BME280;41888;44.696;10.522;2023-02-28T11:11:46;101261.91;;;5.58;100.00
56006;BME280;41888;44.696;10.522;2023-02-28T11:14:26;101259.28;;;5.58;100.00
56006;BME280;41888;44.696;10.522;2023-02-28T11:16:54;101254.00;;;5.40;100.00
56006;BME280;41888;44.696;10.522;2023-02-28T11:19:38;101254.22;;;5.29;100.00
56006;BME280;41888;44.696;10.522;2023-02-28T11:22:06;101260.84;;;5.50;100.00
56006;BME280;41888;44.696;10.522;2023-02-28T11:24:37;101257.94;;;5.53;100.00
56006;BME280;41888;44.696;10.522;2023-02-28T11:29:58;101248.13;;;5.64;100.00
56006;BME280;41888;44.696;10.522;2023-02-28T11:32:29;101251.81;;;5.71;100.00
56006;BME280;41888;44.696;10.522;2023-02-28T11:37:42;101239.34;;;5.81;100.00
56006;BME280;41888;44.696;10.522;2023-02-28T11:40:24;101230.72;;;5.79;100.00
56006;BME280;41888;44.696;10.522;2023-02-28T11:49:40;101226.91;;;5.91;100.00
56006;BME280;41888;44.696;10.522;2023-02-28T11:54:30;101223.94;;;5.94;100.00
56006;BME280;41888;44.696;10.522;2023-02-28T11:57:29;101215.50;;;5.90;100.00
56006;BME280;41888;44.696;10.522;2023-02-28T12:05:32;101210.06;;;5.74;100.00
56006;BME280;41888;44.696;10.522;2023-02-28T12:11:01;101193.25;;;5.75;100.00
56006;BME280;41888;44.696;10.522;2023-02-28T12:13:39;101188.44;;;5.71;100.00
56006;BME280;41888;44.696;10.522;2023-02-28T12:27:41;101161.56;;;5.75;100.00
56006;BME280;41888;44.696;10.522;2023-02-28T12:30:34;101150.31;;;5.91;100.00
56006;BME280;41888;44.696;10.522;2023-02-28T12:38:24;101147.25;;;6.54;100.00
56006;BME280;41888;44.696;10.522;2023-02-28T12:40:56;101145.59;;;6.45;100.00
56006;BME280;41888;44.696;10.522;2023-02-28T12:43:36;101147.06;;;6.47;100.00
56006;BME280;41888;44.696;10.522;2023-02-28T12:46:12;101136.00;;;6.52;100.00
56006;BME280;41888;44.696;10.522;2023-02-28T12:49:11;101137.00;;;6.51;100.00
56006;BME280;41888;44.696;10.522;2023-02-28T12:51:39;101131.72;;;6.51;100.00
56006;BME280;41888;44.696;10.522;2023-02-28T12:54:14;101131.25;;;6.63;100.00
56006;BME280;41888;44.696;10.522;2023-02-28T12:56:47;101118.44;;;6.34;100.00
56006;BME280;41888;44.696;10.522;2023-02-28T12:59:22;101123.38;;;6.29;100.00
56006;BME280;41888;44.696;10.522;2023-02-28T13:10:10;101107.16;;;6.16;100.00
56006;BME280;41888;44.696;10.522;2023-02-28T13:12:36;101114.41;;;6.14;100.00
56006;BME280;41888;44.696;10.522;2023-02-28T13:15:28;101111.19;;;6.28;100.00
56006;BME280;41888;44.696;10.522;2023-02-28T13:17:59;101113.28;;;6.25;100.00
56006;BME280;41888;44.696;10.522;2023-02-28T13:20:27;101114.75;;;6.19;100.00
56006;BME280;41888;44.696;10.522;2023-02-28T13:22:56;101106.00;;;6.19;100.00
56006;BME280;41888;44.696;10.522;2023-02-28T13:27:56;101092.13;;;6.17;100.00
56006;BME280;41888;44.696;10.522;2023-02-28T13:33:28;101096.56;;;6.08;100.00
56006;BME280;41888;44.696;10.522;2023-02-28T13:38:41;101089.81;;;5.80;100.00
56006;BME280;41888;44.696;10.522;2023-02-28T13:44:06;101082.22;;;6.19;100.00
56006;BME280;41888;44.696;10.522;2023-02-28T13:51:52;101087.06;;;6.23;100.00
56006;BME280;41888;44.696;10.522;2023-02-28T13:57:02;101075.47;;;6.16;100.00
56006;BME280;41888;44.696;10.522;2023-02-28T13:59:38;101077.47;;;6.22;100.00
56006;BME280;41888;44.696;10.522;2023-02-28T14:02:57;101067.78;;;6.39;100.00
56006;BME280;41888;44.696;10.522;2023-02-28T14:05:21;101070.06;;;6.42;100.00
56006;BME280;41888;44.696;10.522;2023-02-28T14:07:54;101068.78;;;6.54;100.00
56006;BME280;41888;44.696;10.522;2023-02-28T14:10:31;101067.16;;;6.94;100.00
56006;BME280;41888;44.696;10.522;2023-02-28T14:15:36;101056.78;;;7.63;98.29
56006;BME280;41888;44.696;10.522;2023-02-28T14:20:42;101059.38;;;7.80;95.34
56006;BME280;41888;44.696;10.522;2023-02-28T14:23:30;101055.63;;;7.66;97.53
56006;BME280;41888;44.696;10.522;2023-02-28T14:28:49;101044.53;;;7.71;99.05
56006;BME280;41888;44.696;10.522;2023-02-28T14:31:25;101047.94;;;7.32;100.00
56006;BME280;41888;44.696;10.522;2023-02-28T14:37:14;101043.19;;;6.71;100.00
56006;BME280;41888;44.696;10.522;2023-02-28T14:39:42;101041.34;;;6.63;100.00
56006;BME280;41888;44.696;10.522;2023-02-28T14:42:35;101033.44;;;6.55;100.00
56006;BME280;41888;44.696;10.522;2023-02-28T14:45:04;101032.59;;;6.55;100.00
56006;BME280;41888;44.696;10.522;2023-02-28T14:47:32;101034.06;;;6.33;100.00
56006;BME280;41888;44.696;10.522;2023-02-28T14:50:01;101034.38;;;6.30;100.00
56006;BME280;41888;44.696;10.522;2023-02-28T14:52:31;101028.09;;;6.31;100.00
56006;BME280;41888;44.696;10.522;2023-02-28T14:55:00;101029.72;;;6.16;100.00
56006;BME280;41888;44.696;10.522;2023-02-28T14:57:30;101026.56;;;6.12;100.00
56006;BME280;41888;44.696;10.522;2023-02-28T15:00:15;101035.50;;;6.11;100.00
56006;BME280;41888;44.696;10.522;2023-02-28T15:02:42;101028.06;;;6.15;100.00
56006;BME280;41888;44.696;10.522;2023-02-28T15:07:48;101023.78;;;6.30;100.00
56006;BME280;41888;44.696;10.522;2023-02-28T15:12:41;101032.47;;;5.98;100.00
56006;BME280;41888;44.696;10.522;2023-02-28T15:15:18;101023.06;;;6.04;100.00
56006;BME280;41888;44.696;10.522;2023-02-28T15:17:47;101037.97;;;6.13;100.00
56006;BME280;41888;44.696;10.522;2023-02-28T15:20:16;101019.94;;;6.00;100.00